Time;durP1;ratioP1;P1;durP2;ratioP2;P2;SDS_P1;SDS_P2;PMS_P1;PMS_P2;Temp;Humidity;BMP_temperature;BMP_pressure;BME280_temperature;BME280_humidity;BME280_pressure;Samples;Min_cycle;Max_cycle;Signal;HPM_P1;HPM_P2
2022/12/31 00:01:10;;;;;;;33.90;23.55;;;8.70;99.90;;;;;;5094169;28;20024;-62
2022/12/31 00:03:37;;;;;;;32.72;24.85;;;8.80;99.90;;;;;;5094030;28;20378;-66
2022/12/31 00:06:20;;;;;;;35.60;25.77;;;8.80;99.90;;;;;;5093892;28;20055;-66
2022/12/31 00:08:47;;;;;;;38.13;26.73;;;8.80;99.90;;;;;;5093608;28;20024;-60
2022/12/31 00:11:13;;;;;;;41.67;29.92;;;8.80;99.90;;;;;;5093529;28;20097;-66
2022/12/31 00:13:39;;;;;;;41.03;30.35;;;8.70;99.90;;;;;;5093793;28;20062;-64
2022/12/31 00:16:24;;;;;;;35.90;26.73;;;8.70;99.90;;;;;;5075617;28;20115;-63
2022/12/31 00:18:52;;;;;;;39.10;28.83;;;8.60;99.90;;;;;;5093625;28;20061;-62
2022/12/31 00:21:19;;;;;;;34.55;25.98;;;8.70;99.90;;;;;;5093730;28;20016;-66
2022/12/31 00:23:45;;;;;;;31.73;24.80;;;8.70;99.90;;;;;;5092901;28;20501;-66
2022/12/31 00:26:14;;;;;;;37.80;27.50;;;8.70;99.90;;;;;;5093654;28;20020;-62
2022/12/31 00:28:40;;;;;;;34.13;27.45;;;8.50;99.90;;;;;;5093686;28;20378;-61
2022/12/31 00:31:06;;;;;;;41.20;30.23;;;8.50;99.90;;;;;;5093584;28;20028;-60
2022/12/31 00:33:32;;;;;;;37.40;26.30;;;8.50;99.90;;;;;;5093599;28;20025;-62
2022/12/31 00:36:29;;;;;;;34.25;24.55;;;8.50;99.90;;;;;;5093690;28;20382;-65
2022/12/31 00:38:56;;;;;;;27.73;21.00;;;8.50;99.90;;;;;;5059958;28;20371;-65
2022/12/31 00:41:23;;;;;;;31.77;23.40;;;8.50;99.90;;;;;;5093638;28;20051;-65
2022/12/31 00:43:49;;;;;;;33.22;24.42;;;8.50;99.90;;;;;;5093378;28;20020;-65
2022/12/31 00:46:16;;;;;;;28.10;22.13;;;8.50;99.90;;;;;;5093612;28;20085;-63
2022/12/31 00:48:42;;;;;;;29.88;22.40;;;8.50;99.90;;;;;;5093544;28;20382;-61
2022/12/31 00:51:11;;;;;;;33.67;24.38;;;8.50;99.90;;;;;;5093248;28;20028;-65
2022/12/31 00:53:37;;;;;;;37.42;25.27;;;8.50;99.90;;;;;;5093444;28;20051;-69
2022/12/31 00:56:06;;;;;;;42.63;28.98;;;8.50;99.90;;;;;;5093477;28;20536;-64
2022/12/31 00:58:33;;;;;;;36.63;26.85;;;8.50;99.90;;;;;;5093139;28;20044;-64
2022/12/31 01:01:10;;;;;;;35.15;25.50;;;8.50;99.90;;;;;;5093420;28;20366;-66
2022/12/31 01:03:36;;;;;;;35.80;26.58;;;8.40;99.90;;;;;;5093409;28;20020;-62
2022/12/31 01:06:02;;;;;;;35.38;26.83;;;8.40;99.90;;;;;;5093073;28;20027;-62
2022/12/31 01:08:28;;;;;;;37.53;29.08;;;8.30;99.90;;;;;;5093489;28;20452;-64
2022/12/31 01:13:37;;;;;;;39.83;29.42;;;8.20;99.90;;;;;;5093618;28;20058;-63
2022/12/31 01:16:11;;;;;;;37.22;27.42;;;8.10;99.90;;;;;;5093219;28;20028;-63
2022/12/31 01:18:37;;;;;;;30.05;24.10;;;8.20;99.90;;;;;;5093141;28;20520;-68
2022/12/31 01:21:06;;;;;;;29.58;23.00;;;8.20;99.90;;;;;;5093126;28;20036;-63
2022/12/31 01:23:31;;;;;;;34.95;26.13;;;8.20;99.90;;;;;;5093176;28;20516;-65
2022/12/31 01:26:05;;;;;;;35.05;25.15;;;8.20;99.90;;;;;;5075068;28;20020;-63
2022/12/31 01:28:31;;;;;;;30.67;22.50;;;8.10;99.90;;;;;;5093194;28;20024;-65
2022/12/31 01:30:57;;;;;;;27.98;20.38;;;8.10;99.90;;;;;;5093086;28;20036;-66
2022/12/31 01:33:23;;;;;;;25.77;20.02;;;8.10;99.90;;;;;;5092950;28;20481;-63
2022/12/31 01:35:49;;;;;;;25.13;19.30;;;8.10;99.90;;;;;;5094289;28;20027;-64
2022/12/31 01:38:15;;;;;;;27.98;21.10;;;8.10;99.90;;;;;;5096636;28;20099;-64
2022/12/31 01:40:41;;;;;;;26.17;19.27;;;8.10;99.90;;;;;;5096663;28;20024;-63
2022/12/31 01:43:18;;;;;;;24.88;19.73;;;8.10;99.90;;;;;;5096596;28;20023;-68
2022/12/31 01:45:48;;;;;;;22.92;17.75;;;8.00;99.90;;;;;;5096543;28;20584;-63
2022/12/31 01:48:19;;;;;;;22.90;17.95;;;8.00;99.90;;;;;;5096790;28;20024;-63
2022/12/31 01:50:46;;;;;;;27.70;20.15;;;8.00;99.90;;;;;;5096208;28;20024;-67
2022/12/31 01:53:13;;;;;;;25.33;19.83;;;8.00;99.90;;;;;;5096380;28;20062;-63
2022/12/31 01:55:54;;;;;;;27.60;20.73;;;8.00;99.90;;;;;;5096363;28;20020;-63
2022/12/31 01:58:36;;;;;;;23.88;18.58;;;8.00;99.90;;;;;;5096135;28;20052;-68
2022/12/31 02:01:02;;;;;;;22.73;17.48;;;8.00;99.90;;;;;;5096287;28;20032;-63
2022/12/31 02:03:28;;;;;;;21.65;16.67;;;8.10;99.90;;;;;;5096110;28;20089;-65
2022/12/31 02:06:04;;;;;;;24.35;18.38;;;8.20;99.90;;;;;;5096386;28;20045;-65
2022/12/31 02:08:29;;;;;;;25.92;20.13;;;8.20;99.90;;;;;;5096200;28;20024;-65
2022/12/31 02:10:55;;;;;;;25.90;18.58;;;8.10;99.90;;;;;;5095882;28;20035;-68
2022/12/31 02:13:21;;;;;;;22.80;16.67;;;8.10;99.90;;;;;;5095952;28;20193;-59
2022/12/31 02:16:16;;;;;;;26.25;20.50;;;8.10;99.90;;;;;;5095938;28;20470;-66
2022/12/31 02:18:55;;;;;;;33.05;23.20;;;8.00;99.90;;;;;;5095712;28;20418;-65
2022/12/31 02:21:26;;;;;;;27.73;20.35;;;8.00;99.90;;;;;;5077723;28;20032;-65
2022/12/31 02:24:09;;;;;;;32.72;24.95;;;8.00;99.90;;;;;;5095921;28;20016;-65
2022/12/31 02:26:43;;;;;;;27.33;21.02;;;7.90;99.90;;;;;;5095747;28;20162;-63
2022/12/31 02:29:17;;;;;;;34.67;25.67;;;7.80;99.90;;;;;;5095670;28;20023;-67
2022/12/31 02:31:57;;;;;;;33.55;23.45;;;7.80;99.90;;;;;;5095703;28;20024;-62
2022/12/31 02:34:30;;;;;;;24.77;18.45;;;7.80;99.90;;;;;;5095416;28;20039;-63
2022/12/31 02:36:59;;;;;;;27.20;20.33;;;7.80;99.90;;;;;;5095527;28;20027;-66
2022/12/31 02:39:25;;;;;;;23.85;18.77;;;7.80;99.90;;;;;;5095492;28;20031;-63
2022/12/31 02:41:52;;;;;;;23.25;17.17;;;7.80;99.90;;;;;;5095309;28;20021;-63
2022/12/31 02:44:24;;;;;;;27.75;20.92;;;7.80;99.90;;;;;;5095399;28;20027;-65
2022/12/31 02:47:47;;;;;;;25.23;19.48;;;7.90;99.90;;;;;;5094638;28;20042;-68
2022/12/31 02:50:27;;;;;;;27.27;18.33;;;7.90;99.90;;;;;;5095068;28;20016;-62
2022/12/31 02:53:17;;;;;;;28.15;19.70;;;8.00;99.90;;;;;;5095106;28;20107;-67
2022/12/31 02:56:11;;;;;;;26.50;19.25;;;8.10;99.90;;;;;;5095210;28;20378;-66
2022/12/31 03:02:14;;;;;;;24.08;18.38;;;8.10;99.90;;;;;;5095091;28;20043;-65
2022/12/31 03:04:48;;;;;;;;;;;8.10;99.90;;;;;;5095435;28;20076;-66
2022/12/31 03:07:23;;;;;;;18.50;15.00;;;8.10;99.90;;;;;;5095071;28;19907;-66
2022/12/31 03:09:49;;;;;;;17.83;14.07;;;8.20;99.90;;;;;;5094894;28;20024;-63
2022/12/31 03:15:00;;;;;;;14.48;11.90;;;8.30;99.90;;;;;;5094900;28;20050;-62
2022/12/31 03:17:26;;;;;;;15.32;11.38;;;8.30;99.90;;;;;;5094483;28;20474;-66
2022/12/31 03:22:40;;;;;;;18.98;14.05;;;8.40;99.90;;;;;;5095251;28;20096;-65
2022/12/31 03:27:57;;;;;;;16.63;12.15;;;8.40;99.90;;;;;;5094813;28;20054;-65
2022/12/31 03:30:24;;;;;;;17.67;13.57;;;8.40;99.90;;;;;;5094218;28;20022;-61
2022/12/31 03:32:50;;;;;;;16.65;13.23;;;8.40;99.90;;;;;;5094633;28;20052;-66
2022/12/31 03:35:21;;;;;;;15.88;12.50;;;8.40;99.90;;;;;;5076221;28;20028;-66
2022/12/31 03:37:48;;;;;;;14.55;12.32;;;8.50;99.90;;;;;;5094525;28;20027;-65
2022/12/31 03:40:15;;;;;;;14.00;11.52;;;8.50;99.90;;;;;;5094589;28;20072;-61
2022/12/31 03:42:41;;;;;;;15.15;12.27;;;8.60;99.90;;;;;;5094302;28;20473;-62
2022/12/31 03:45:09;;;;;;;14.45;12.20;;;8.60;99.90;;;;;;5094251;28;20031;-63
2022/12/31 03:47:35;;;;;;;15.80;12.63;;;8.60;99.90;;;;;;5094222;28;20458;-68
2022/12/31 03:50:01;;;;;;;17.13;13.73;;;8.70;99.90;;;;;;5094155;28;20024;-66
2022/12/31 03:52:26;;;;;;;15.45;11.65;;;8.70;99.90;;;;;;5094372;28;20051;-68
2022/12/31 03:54:52;;;;;;;14.40;11.68;;;8.60;99.90;;;;;;5094128;28;20020;-65
2022/12/31 03:57:18;;;;;;;12.82;10.63;;;8.70;99.90;;;;;;5093873;28;20051;-67
2022/12/31 03:59:43;;;;;;;11.63;9.65;;;8.70;99.90;;;;;;5093157;28;20028;-66
2022/12/31 04:02:09;;;;;;;11.38;9.48;;;8.70;99.90;;;;;;5094120;28;20450;-66
2022/12/31 04:04:35;;;;;;;10.52;9.40;;;8.70;99.90;;;;;;5094035;28;20024;-63
2022/12/31 04:07:00;;;;;;;13.35;10.73;;;8.80;99.90;;;;;;5093889;28;20095;-63
2022/12/31 04:09:26;;;;;;;13.60;10.65;;;8.80;99.90;;;;;;5094034;28;20445;-67
2022/12/31 04:11:52;;;;;;;13.77;11.50;;;8.80;99.90;;;;;;5093739;28;20024;-63
2022/12/31 04:14:18;;;;;;;14.82;11.55;;;8.70;99.90;;;;;;5093572;28;20031;-63
2022/12/31 04:16:43;;;;;;;15.70;11.05;;;8.70;99.90;;;;;;5093964;28;20027;-62
2022/12/31 04:19:10;;;;;;;15.48;11.70;;;8.70;99.90;;;;;;5093715;28;20016;-62
2022/12/31 04:21:36;;;;;;;16.60;12.27;;;8.70;99.90;;;;;;5093703;28;20023;-66
2022/12/31 04:24:02;;;;;;;11.30;10.07;;;8.70;99.90;;;;;;5094037;28;20492;-65
2022/12/31 04:26:28;;;;;;;11.52;9.25;;;8.70;99.90;;;;;;5093878;28;20117;-65
2022/12/31 04:28:54;;;;;;;11.60;9.20;;;8.80;99.90;;;;;;5093524;28;20047;-65
2022/12/31 04:31:19;;;;;;;9.77;8.32;;;8.80;99.90;;;;;;5093539;28;20051;-64
2022/12/31 04:33:45;;;;;;;10.35;8.48;;;8.80;99.90;;;;;;5093738;28;20035;-64
2022/12/31 04:36:11;;;;;;;11.07;9.23;;;8.90;99.90;;;;;;5093587;28;20051;-63
2022/12/31 04:38:37;;;;;;;12.35;10.35;;;8.90;99.90;;;;;;5093440;28;20423;-66
2022/12/31 04:41:19;;;;;;;10.07;9.00;;;8.80;99.90;;;;;;5093631;28;20024;-63
2022/12/31 04:43:53;;;;;;;9.70;8.55;;;8.80;99.90;;;;;;5093320;28;20031;-62
2022/12/31 04:46:25;;;;;;;11.35;8.57;;;8.90;99.90;;;;;;5093721;28;20050;-62
2022/12/31 04:48:51;;;;;;;11.80;8.98;;;8.90;99.90;;;;;;5093606;28;20027;-66
2022/12/31 04:51:16;;;;;;;9.32;7.53;;;8.90;99.90;;;;;;5093362;28;20020;-62
2022/12/31 04:53:42;;;;;;;10.88;8.55;;;9.00;99.90;;;;;;5093523;28;20108;-64
2022/12/31 04:56:09;;;;;;;8.80;7.22;;;8.90;99.90;;;;;;5093622;28;20378;-64
2022/12/31 04:58:36;;;;;;;8.65;7.18;;;9.00;99.90;;;;;;5092955;28;20052;-66
2022/12/31 05:01:02;;;;;;;11.02;8.93;;;9.00;99.90;;;;;;5093494;28;20478;-63
2022/12/31 05:03:28;;;;;;;8.98;7.30;;;9.00;99.90;;;;;;5093449;28;20024;-66
2022/12/31 05:06:02;;;;;;;13.38;9.15;;;9.00;99.90;;;;;;5093134;28;20054;-63
2022/12/31 05:08:29;;;;;;;10.73;8.93;;;9.00;99.90;;;;;;5093368;28;20016;-62
2022/12/31 05:10:54;;;;;;;8.68;7.63;;;9.00;99.90;;;;;;5096385;28;20099;-63
2022/12/31 05:13:20;;;;;;;10.60;9.13;;;9.00;99.90;;;;;;5097095;28;20445;-66
2022/12/31 05:15:46;;;;;;;9.38;8.20;;;9.00;99.90;;;;;;5097091;28;20100;-64
2022/12/31 05:18:12;;;;;;;12.52;9.80;;;9.00;99.90;;;;;;5097065;28;20469;-66
2022/12/31 05:20:38;;;;;;;12.90;10.18;;;9.00;99.90;;;;;;5096900;28;20035;-63
2022/12/31 05:23:04;;;;;;;11.48;9.68;;;9.00;99.90;;;;;;5097096;28;20020;-69
2022/12/31 05:25:30;;;;;;;10.90;8.82;;;9.00;99.90;;;;;;5096939;28;20024;-62
2022/12/31 05:27:56;;;;;;;12.82;9.88;;;9.00;99.90;;;;;;5096741;28;20052;-64
2022/12/31 05:30:22;;;;;;;14.40;12.60;;;9.00;99.90;;;;;;5096887;28;20028;-65
2022/12/31 05:32:48;;;;;;;14.88;11.77;;;9.00;99.90;;;;;;5096929;28;20031;-67
2022/12/31 05:35:14;;;;;;;12.10;9.98;;;9.00;99.90;;;;;;5096702;28;20020;-65
2022/12/31 05:37:39;;;;;;;11.85;10.05;;;9.00;99.90;;;;;;5096811;28;20091;-62
2022/12/31 05:40:06;;;;;;;10.93;9.75;;;9.00;99.90;;;;;;5096667;28;20131;-65
2022/12/31 05:42:32;;;;;;;13.40;10.85;;;9.00;99.90;;;;;;5096561;28;20016;-62
2022/12/31 05:44:58;;;;;;;10.45;9.10;;;9.10;99.90;;;;;;5096600;28;20047;-64
2022/12/31 05:47:24;;;;;;;11.45;9.35;;;9.10;99.90;;;;;;5096677;28;20023;-66
2022/12/31 05:49:50;;;;;;;10.32;8.82;;;9.10;99.90;;;;;;5096645;28;20480;-63
2022/12/31 05:52:15;;;;;;;16.65;12.73;;;9.10;99.90;;;;;;5096347;28;20032;-65
2022/12/31 05:54:41;;;;;;;14.05;11.85;;;9.20;99.90;;;;;;5096435;28;20051;-64
2022/12/31 05:57:07;;;;;;;14.00;11.23;;;9.10;99.90;;;;;;5096118;28;20486;-66
2022/12/31 05:59:33;;;;;;;14.45;11.60;;;9.10;99.90;;;;;;5095967;28;20043;-67
2022/12/31 06:01:59;;;;;;;17.63;13.20;;;9.00;99.90;;;;;;5096227;28;20062;-63
2022/12/31 06:04:25;;;;;;;16.25;13.55;;;9.00;99.90;;;;;;5096428;28;20543;-63
2022/12/31 06:06:51;;;;;;;22.45;16.08;;;9.00;99.90;;;;;;5096110;28;20055;-63
2022/12/31 06:09:17;;;;;;;28.73;22.27;;;8.90;99.90;;;;;;5096120;28;20020;-65
2022/12/31 06:11:44;;;;;;;33.47;24.55;;;8.80;99.90;;;;;;5095792;28;20054;-63
2022/12/31 06:14:10;;;;;;;33.92;25.90;;;8.70;99.90;;;;;;5096152;28;20028;-68
2022/12/31 06:16:35;;;;;;;27.63;22.70;;;8.50;99.90;;;;;;5095896;28;20030;-67
2022/12/31 06:19:01;;;;;;;33.90;22.52;;;8.50;99.90;;;;;;5096148;28;20024;-60
2022/12/31 06:21:28;;;;;;;44.40;31.85;;;8.40;99.90;;;;;;5095143;28;20028;-65
2022/12/31 06:23:54;;;;;;;43.47;32.83;;;8.40;99.90;;;;;;5095571;28;20081;-64
2022/12/31 06:26:19;;;;;;;37.83;30.88;;;8.40;99.90;;;;;;5095686;28;20024;-66
2022/12/31 06:28:45;;;;;;;33.28;26.30;;;8.40;99.90;;;;;;5095949;28;20016;-66
2022/12/31 06:31:12;;;;;;;30.77;25.23;;;8.40;99.90;;;;;;5095658;28;20107;-69
2022/12/31 06:33:38;;;;;;;41.67;33.15;;;8.40;99.90;;;;;;5096011;28;20020;-61
2022/12/31 06:36:06;;;;;;;41.42;32.17;;;8.40;99.90;;;;;;5095452;28;20023;-63
2022/12/31 06:38:35;;;;;;;59.65;44.17;;;8.40;99.90;;;;;;5095056;28;20030;-64
2022/12/31 06:41:06;;;;;;;50.28;36.38;;;8.40;99.90;;;;;;5095569;28;20056;-66
2022/12/31 06:43:33;;;;;;;43.78;34.20;;;8.30;99.90;;;;;;5095348;28;20016;-64
2022/12/31 06:46:03;;;;;;;32.42;26.92;;;8.30;99.90;;;;;;5077287;28;20432;-63
2022/12/31 06:48:29;;;;;;;41.85;32.17;;;8.30;99.90;;;;;;5095358;28;20016;-67
2022/12/31 06:50:55;;;;;;;56.42;41.13;;;8.40;99.90;;;;;;5095311;28;20017;-64
2022/12/31 06:53:20;;;;;;;59.65;42.25;;;8.30;99.90;;;;;;5095144;28;20085;-66
2022/12/31 06:55:49;;;;;;;56.92;42.38;;;8.20;99.90;;;;;;5095172;28;20027;-69
2022/12/31 06:58:16;;;;;;;39.85;32.30;;;8.20;99.90;;;;;;5095034;28;20464;-65
2022/12/31 07:00:58;;;;;;;34.80;27.85;;;8.20;99.90;;;;;;5095186;28;20024;-63
2022/12/31 07:03:45;;;;;;;32.30;27.48;;;8.20;99.90;;;;;;5095117;28;20020;-64
2022/12/31 07:06:26;;;;;;;88.57;65.93;;;8.30;99.90;;;;;;5095127;28;20020;-66
2022/12/31 07:09:04;;;;;;;139.23;99.75;;;8.30;99.90;;;;;;5094771;28;20420;-65
2022/12/31 07:11:40;;;;;;;111.65;79.40;;;8.30;99.90;;;;;;5094829;28;20042;-65
2022/12/31 07:14:14;;;;;;;101.75;72.90;;;8.20;99.90;;;;;;5094961;28;20024;-60
2022/12/31 07:16:49;;;;;;;88.72;66.22;;;8.20;99.90;;;;;;5094713;28;20494;-62
2022/12/31 07:19:27;;;;;;;110.05;73.28;;;8.30;99.90;;;;;;5076690;28;20016;-63
2022/12/31 07:21:57;;;;;;;130.27;94.90;;;8.40;99.90;;;;;;5094550;28;20028;-63
2022/12/31 07:24:23;;;;;;;158.45;112.60;;;8.40;99.90;;;;;;5094815;28;20432;-64
2022/12/31 07:26:51;;;;;;;119.43;89.60;;;8.40;99.90;;;;;;5094619;28;20017;-69
2022/12/31 07:29:45;;;;;;;111.03;82.18;;;8.40;99.90;;;;;;5094672;28;20024;-65
2022/12/31 07:32:44;;;;;;;140.93;105.00;;;8.50;99.90;;;;;;5094587;28;20024;-62
2022/12/31 07:35:47;;;;;;;129.98;96.20;;;8.70;99.90;;;;;;5094536;28;20029;-62
2022/12/31 07:38:31;;;;;;;174.00;128.98;;;8.70;99.90;;;;;;5094408;28;20040;-64
2022/12/31 07:41:20;;;;;;;200.55;149.07;;;8.70;99.90;;;;;;5094535;28;20027;-67
2022/12/31 07:44:27;;;;;;;209.82;151.98;;;8.70;99.90;;;;;;5094247;28;20024;-65
2022/12/31 07:47:00;;;;;;;148.18;115.57;;;8.70;99.90;;;;;;5066771;28;20047;-64
2022/12/31 07:49:28;;;;;;;176.85;132.18;;;9.00;99.90;;;;;;5094333;28;20111;-63
2022/12/31 07:51:55;;;;;;;223.18;167.65;;;9.30;99.90;;;;;;5094033;28;20485;-68
2022/12/31 07:54:21;;;;;;;167.45;133.85;;;9.40;99.90;;;;;;5094175;28;20028;-63
2022/12/31 07:56:48;;;;;;;174.98;136.45;;;9.50;99.90;;;;;;5094043;28;20024;-63
2022/12/31 07:59:29;;;;;;;197.20;153.02;;;9.70;99.90;;;;;;5093748;28;20051;-63
2022/12/31 08:02:17;;;;;;;153.43;122.30;;;10.20;99.90;;;;;;5094098;28;20031;-63
2022/12/31 08:05:14;;;;;;;128.73;103.15;;;11.70;99.90;;;;;;5076063;28;20048;-64
2022/12/31 08:08:01;;;;;;;154.52;119.30;;;12.80;99.90;;;;;;5076150;28;20496;-63
2022/12/31 08:11:11;;;;;;;146.95;116.57;;;13.40;99.90;;;;;;5093857;28;20027;-67
2022/12/31 08:13:40;;;;;;;191.50;139.43;;;13.30;99.90;;;;;;5062495;28;20036;-65
2022/12/31 08:16:12;;;;;;;203.55;150.27;;;13.40;99.90;;;;;;5093963;28;20358;-69
2022/12/31 08:18:38;;;;;;;217.13;157.45;;;14.00;99.90;;;;;;5093717;28;20016;-67
2022/12/31 08:21:09;;;;;;;253.38;172.23;;;13.90;99.90;;;;;;5093666;28;20386;-63
2022/12/31 08:23:58;;;;;;;276.15;190.10;;;13.70;99.90;;;;;;5093808;28;20028;-66
2022/12/31 08:26:59;;;;;;;444.65;306.05;;;13.80;99.90;;;;;;5093641;28;20023;-65
2022/12/31 08:30:02;;;;;;;407.65;279.75;;;13.60;99.90;;;;;;5090268;28;20226;-65
2022/12/31 08:32:49;;;;;;;351.35;244.73;;;13.10;99.90;;;;;;5093630;28;20085;-66
2022/12/31 08:35:35;;;;;;;310.30;215.63;;;12.80;99.90;;;;;;5093339;28;20375;-64
2022/12/31 08:38:32;;;;;;;370.77;256.55;;;12.60;99.90;;;;;;5093611;28;20027;-64
2022/12/31 08:41:10;;;;;;;362.08;247.60;;;12.40;99.90;;;;;;5093634;28;20024;-65
2022/12/31 08:43:42;;;;;;;341.33;235.63;;;12.00;99.90;;;;;;5093496;28;20099;-66
2022/12/31 08:46:22;;;;;;;342.27;237.73;;;11.80;99.90;;;;;;5097233;28;20359;-64
2022/12/31 08:48:48;;;;;;;316.80;215.95;;;11.70;99.90;;;;;;5097556;28;20020;-64
2022/12/31 08:51:20;;;;;;;310.17;219.65;;;11.50;99.90;;;;;;5097430;28;20031;-63
2022/12/31 08:53:47;;;;;;;329.08;231.10;;;11.40;99.90;;;;;;5097545;28;20392;-66
2022/12/31 08:56:35;;;;;;;277.48;198.98;;;11.20;99.90;;;;;;5097472;28;20097;-60
2022/12/31 08:59:15;;;;;;;270.35;187.50;;;11.10;99.90;;;;;;5097250;28;20089;-66
2022/12/31 09:01:53;;;;;;;244.27;174.40;;;11.20;99.90;;;;;;5097450;28;20038;-63
2022/12/31 09:04:33;;;;;;;235.20;168.88;;;11.40;99.90;;;;;;5097379;28;20473;-66
2022/12/31 09:07:02;;;;;;;242.05;169.70;;;11.60;99.90;;;;;;5097245;28;20028;-67
2022/12/31 09:09:43;;;;;;;234.30;165.80;;;12.00;99.90;;;;;;5079387;28;20020;-61
2022/12/31 09:12:14;;;;;;;215.98;152.57;;;12.30;99.90;;;;;;5096956;28;20046;-62
2022/12/31 09:14:46;;;;;;;223.43;160.32;;;12.80;99.90;;;;;;5097084;28;20031;-65
2022/12/31 09:17:18;;;;;;;193.52;141.82;;;12.90;99.90;;;;;;5079078;28;20470;-65
2022/12/31 09:19:43;;;;;;;175.65;132.20;;;12.90;99.90;;;;;;5096862;28;20474;-65
2022/12/31 09:22:09;;;;;;;151.70;116.85;;;13.20;99.90;;;;;;5096942;28;20104;-61
2022/12/31 09:24:35;;;;;;;140.75;109.18;;;13.70;99.90;;;;;;5097024;28;20020;-66
2022/12/31 09:27:22;;;;;;;174.23;128.45;;;14.30;99.90;;;;;;5096840;28;20084;-66
2022/12/31 09:30:02;;;;;;;134.02;106.53;;;14.70;99.90;;;;;;5078791;28;20020;-63
2022/12/31 09:33:04;;;;;;;133.70;104.55;;;15.20;99.90;;;;;;5096723;28;20039;-65
2022/12/31 09:35:44;;;;;;;117.68;98.10;;;15.70;99.90;;;;;;5096796;28;20084;-65
2022/12/31 09:38:44;;;;;;;114.43;94.53;;;16.10;99.90;;;;;;5096841;28;20565;-65
2022/12/31 09:41:15;;;;;;;111.53;90.60;;;16.50;99.90;;;;;;5096672;28;20434;-64
2022/12/31 09:44:14;;;;;;;93.18;80.50;;;16.90;99.90;;;;;;5096497;28;20551;-62
2022/12/31 09:47:21;;;;;;;77.50;68.55;;;17.20;99.90;;;;;;5096570;28;20062;-65
2022/12/31 09:50:09;;;;;;;70.50;62.03;;;17.50;94.60;;;;;;5096550;28;20424;-65
2022/12/31 09:52:50;;;;;;;64.53;56.75;;;17.70;96.50;;;;;;5096573;28;20029;-66
2022/12/31 09:55:26;;;;;;;60.60;53.53;;;17.90;92.90;;;;;;5095990;28;20020;-64
2022/12/31 09:58:17;;;;;;;71.10;61.75;;;18.10;92.70;;;;;;5095360;28;20370;-65
2022/12/31 10:00:48;;;;;;;84.75;71.40;;;18.30;87.90;;;;;;5096254;28;20028;-64
2022/12/31 10:03:41;;;;;;;90.20;78.70;;;18.50;80.50;;;;;;5096240;28;20020;-66
2022/12/31 10:06:16;;;;;;;77.80;69.57;;;18.70;80.20;;;;;;5096230;28;20092;-65
2022/12/31 10:09:14;;;;;;;69.32;61.60;;;18.80;82.60;;;;;;5095954;28;20047;-63
2022/12/31 10:12:15;;;;;;;128.45;114.43;;;19.10;64.90;;;;;;5051066;28;20055;-61
2022/12/31 10:14:59;;;;;;;164.68;139.88;;;19.00;66.70;;;;;;5096073;28;20020;-64
2022/12/31 10:17:48;;;;;;;129.27;115.82;;;19.00;66.70;;;;;;5095641;28;20027;-62
2022/12/31 10:20:41;;;;;;;107.07;95.70;;;19.10;64.30;;;;;;5095905;28;20460;-64
2022/12/31 10:23:28;;;;;;;81.32;72.40;;;19.30;68.60;;;;;;5095871;28;20478;-66
2022/12/31 10:26:21;;;;;;;86.43;77.18;;;19.70;59.90;;;;;;5095699;28;20421;-64
2022/12/31 10:29:04;;;;;;;72.47;64.77;;;19.90;60.90;;;;;;5095845;28;20020;-63
2022/12/31 10:31:56;;;;;;;60.33;53.90;;;20.10;57.30;;;;;;5095982;28;20424;-68
2022/12/31 10:34:33;;;;;;;49.10;43.97;;;20.20;57.10;;;;;;5094889;28;20039;-67
2022/12/31 10:37:37;;;;;;;37.15;33.28;;;20.40;54.60;;;;;;5095601;28;20032;-64
2022/12/31 10:40:20;;;;;;;36.45;32.55;;;20.50;52.00;;;;;;5054802;28;20416;-65
2022/12/31 10:43:03;;;;;;;40.47;35.90;;;20.60;52.10;;;;;;5077543;28;20028;-66
2022/12/31 10:45:42;;;;;;;;;;;20.80;52.00;;;;;;5095805;28;20088;-66
2022/12/31 10:48:40;;;;;;;72.85;63.55;;;20.70;51.20;;;;;;5095533;28;20383;-64
2022/12/31 10:51:20;;;;;;;55.58;49.88;;;20.50;52.10;;;;;;5095022;28;20371;-64
2022/12/31 10:54:00;;;;;;;48.72;43.85;;;20.60;51.60;;;;;;5095266;28;20043;-67
2022/12/31 10:56:44;;;;;;;42.35;38.05;;;20.80;51.40;;;;;;5094929;28;20060;-62
2022/12/31 10:59:21;;;;;;;34.85;31.38;;;21.20;48.60;;;;;;5095188;28;20051;-66
2022/12/31 11:01:54;;;;;;;32.42;29.10;;;21.50;48.40;;;;;;5095056;28;20115;-66
2022/12/31 11:04:38;;;;;;;46.55;41.50;;;21.80;46.50;;;;;;5095130;28;20420;-62
2022/12/31 11:07:26;;;;;;;36.55;32.70;;;22.00;46.20;;;;;;5094747;28;20382;-67
2022/12/31 11:10:19;;;;;;;32.35;28.95;;;22.20;46.30;;;;;;5095011;28;20024;-63
2022/12/31 11:13:26;;;;;;;32.25;29.00;;;22.40;46.20;;;;;;5094888;28;20470;-63
2022/12/31 11:16:31;;;;;;;31.08;28.08;;;22.50;45.40;;;;;;5067034;28;20100;-68
2022/12/31 11:19:13;;;;;;;37.35;33.30;;;22.60;46.20;;;;;;5076673;28;20036;-66
2022/12/31 11:21:53;;;;;;;37.53;33.72;;;22.70;44.90;;;;;;5094730;28;20028;-62
2022/12/31 11:25:06;;;;;;;37.13;33.30;;;22.70;46.50;;;;;;5094810;28;20108;-62
2022/12/31 11:27:52;;;;;;;33.15;29.95;;;22.70;46.30;;;;;;5012858;28;20029;-64
2022/12/31 11:30:22;;;;;;;29.33;26.38;;;22.70;46.20;;;;;;5088915;28;20043;-64
2022/12/31 11:33:16;;;;;;;33.47;29.98;;;22.80;45.10;;;;;;5094580;28;20024;-66
2022/12/31 11:36:26;;;;;;;34.13;30.48;;;22.90;46.10;;;;;;5094660;28;20069;-66
2022/12/31 11:39:19;;;;;;;31.33;28.05;;;22.90;45.00;;;;;;5063344;28;20028;-62
2022/12/31 11:42:35;;;;;;;71.07;62.03;;;22.80;44.50;;;;;;5094258;28;20043;-61
2022/12/31 11:45:17;;;;;;;58.38;52.13;;;22.40;45.50;;;;;;5034282;28;20032;-66
2022/12/31 11:47:54;;;;;;;60.15;52.10;;;22.10;47.70;;;;;;5094413;28;20020;-65
2022/12/31 11:50:49;;;;;;;59.28;48.97;;;21.90;47.20;;;;;;5076054;28;20024;-64
2022/12/31 11:53:37;;;;;;;43.17;37.92;;;21.70;47.60;;;;;;5094074;28;20020;-65
2022/12/31 11:56:11;;;;;;;40.33;35.92;;;21.90;46.40;;;;;;5094155;28;20024;-63
2022/12/31 11:58:41;;;;;;;39.75;35.55;;;22.00;47.10;;;;;;5093639;28;20097;-63
2022/12/31 12:01:28;;;;;;;43.72;39.13;;;22.20;47.60;;;;;;5094080;28;20032;-68
2022/12/31 12:03:54;;;;;;;30.45;27.42;;;22.20;48.50;;;;;;5075899;28;20089;-67
2022/12/31 12:06:26;;;;;;;19.08;16.10;;;22.40;46.60;;;;;;5094119;28;20482;-64
2022/12/31 12:08:54;;;;;;;16.13;14.02;;;22.70;43.60;;;;;;5093941;28;20099;-68
2022/12/31 12:11:26;;;;;;;34.25;29.92;;;22.80;43.00;;;;;;5093828;28;20024;-66
2022/12/31 12:13:52;;;;;;;51.95;45.35;;;22.70;44.50;;;;;;5093762;28;20027;-66
2022/12/31 12:16:20;;;;;;;49.80;44.38;;;22.30;46.20;;;;;;5093634;28;20079;-65
2022/12/31 12:19:05;;;;;;;47.55;42.42;;;21.80;46.50;;;;;;5075329;28;20039;-64
2022/12/31 12:21:32;;;;;;;48.03;41.30;;;21.40;47.70;;;;;;5093796;28;20030;-66
2022/12/31 12:24:04;;;;;;;46.33;38.17;;;21.30;47.50;;;;;;5093780;28;20456;-64
2022/12/31 12:26:40;;;;;;;36.95;32.95;;;21.40;47.30;;;;;;5093614;28;20028;-64
2022/12/31 12:29:27;;;;;;;34.42;30.75;;;21.20;48.10;;;;;;5075654;28;20484;-65
2022/12/31 12:32:00;;;;;;;49.03;43.88;;;21.10;48.40;;;;;;5093728;28;20061;-65
2022/12/31 12:34:26;;;;;;;;;;;21.10;48.80;;;;;;5094096;28;20036;-64
2022/12/31 12:36:52;;;;;;;31.65;28.52;;;20.90;49.10;;;;;;5093744;28;19973;-64
2022/12/31 12:39:23;;;;;;;31.75;28.48;;;20.50;50.30;;;;;;5093603;28;20020;-65
2022/12/31 12:42:13;;;;;;;33.53;29.75;;;20.40;50.80;;;;;;5093352;28;20472;-65
2022/12/31 12:44:40;;;;;;;26.48;22.95;;;20.30;50.10;;;;;;5093628;28;20046;-66
2022/12/31 12:47:13;;;;;;;26.65;20.95;;;20.60;49.40;;;;;;5075440;28;20038;-64
2022/12/31 12:49:41;;;;;;;;;;;20.80;50.50;;;;;;5093988;28;20040;-63
2022/12/31 12:52:15;;;;;;;20.85;17.73;;;20.90;49.20;;;;;;5075418;28;19908;-64
2022/12/31 12:55:13;;;;;;;18.85;16.95;;;20.80;49.90;;;;;;5093575;28;20024;-68
2022/12/31 12:57:57;;;;;;;28.30;22.58;;;20.60;50.80;;;;;;5075179;28;20048;-66
2022/12/31 13:00:45;;;;;;;32.92;27.55;;;20.40;52.00;;;;;;5093606;28;20028;-62
2022/12/31 13:03:37;;;;;;;84.78;66.78;;;20.30;51.80;;;;;;5093557;28;20012;-67
2022/12/31 13:06:29;;;;;;;76.95;62.55;;;20.10;52.80;;;;;;5093382;28;20500;-67
2022/12/31 13:09:13;;;;;;;73.80;59.45;;;19.90;54.80;;;;;;5074982;28;20474;-67
2022/12/31 13:11:39;;;;;;;100.32;76.28;;;19.80;55.00;;;;;;5093121;28;20389;-64
2022/12/31 13:14:29;;;;;;;86.32;69.72;;;19.70;55.90;;;;;;5075255;28;20028;-67
2022/12/31 13:17:20;;;;;;;74.05;59.88;;;19.50;56.20;;;;;;5093515;28;20103;-65
2022/12/31 13:19:57;;;;;;;43.45;34.97;;;19.40;56.90;;;;;;5093397;28;20111;-67
2022/12/31 13:22:29;;;;;;;48.53;39.80;;;19.10;61.70;;;;;;5093237;28;20024;-64
2022/12/31 13:25:29;;;;;;;49.63;39.38;;;18.90;63.30;;;;;;5092953;28;20020;-67